sensor_id;sensor_type;location;lat;lon;timestamp;temperature;humidity
13598;DHT22;38563;54.258;12.574;2023-07-02T06:46:45;16.80;99.90
13598;DHT22;38563;54.258;12.574;2023-07-02T06:49:12;17.00;99.90
13598;DHT22;38563;54.258;12.574;2023-07-02T06:51:39;17.30;99.90
13598;DHT22;38563;54.258;12.574;2023-07-02T06:54:06;17.50;99.90
13598;DHT22;38563;54.258;12.574;2023-07-02T06:56:33;17.60;99.90
13598;DHT22;38563;54.258;12.574;2023-07-02T06:59:00;17.40;99.90
13598;DHT22;38563;54.258;12.574;2023-07-02T07:01:27;17.10;99.90
13598;DHT22;38563;54.258;12.574;2023-07-02T07:03:55;17.10;99.90
13598;DHT22;38563;54.258;12.574;2023-07-02T07:06:21;17.30;99.90
13598;DHT22;38563;54.258;12.574;2023-07-02T07:08:48;17.30;99.90
13598;DHT22;38563;54.258;12.574;2023-07-02T07:11:15;17.30;99.90
13598;DHT22;38563;54.258;12.574;2023-07-02T07:13:42;17.30;99.90
13598;DHT22;38563;54.258;12.574;2023-07-02T07:16:09;17.20;99.90
13598;DHT22;38563;54.258;12.574;2023-07-02T07:18:36;17.20;99.90
13598;DHT22;38563;54.258;12.574;2023-07-02T07:21:04;17.30;99.90
13598;DHT22;38563;54.258;12.574;2023-07-02T07:23:30;17.30;99.90
13598;DHT22;38563;54.258;12.574;2023-07-02T07:25:57;17.30;99.90
13598;DHT22;38563;54.258;12.574;2023-07-02T07:28:24;17.30;99.90
13598;DHT22;38563;54.258;12.574;2023-07-02T07:30:51;16.80;99.90
13598;DHT22;38563;54.258;12.574;2023-07-02T07:33:17;16.30;99.90
13598;DHT22;38563;54.258;12.574;2023-07-02T07:35:44;16.20;99.90
13598;DHT22;38563;54.258;12.574;2023-07-02T07:38:14;16.00;99.90
13598;DHT22;38563;54.258;12.574;2023-07-02T07:40:41;15.70;99.90
13598;DHT22;38563;54.258;12.574;2023-07-02T07:43:08;15.50;99.90
13598;DHT22;38563;54.258;12.574;2023-07-02T07:45:35;15.60;99.90
13598;DHT22;38563;54.258;12.574;2023-07-02T07:48:03;16.00;99.90
13598;DHT22;38563;54.258;12.574;2023-07-02T07:50:30;16.50;99.90
13598;DHT22;38563;54.258;12.574;2023-07-02T07:52:58;16.80;99.90
13598;DHT22;38563;54.258;12.574;2023-07-02T07:55:26;16.90;99.90
13598;DHT22;38563;54.258;12.574;2023-07-02T07:57:53;16.70;99.90
13598;DHT22;38563;54.258;12.574;2023-07-02T08:00:20;16.00;99.90
13598;DHT22;38563;54.258;12.574;2023-07-02T08:02:48;14.70;99.90
13598;DHT22;38563;54.258;12.574;2023-07-02T08:05:15;13.70;99.90
13598;DHT22;38563;54.258;12.574;2023-07-02T08:07:42;13.30;99.90
13598;DHT22;38563;54.258;12.574;2023-07-02T08:10:09;13.30;99.90
13598;DHT22;38563;54.258;12.574;2023-07-02T08:12:37;13.40;99.90
13598;DHT22;38563;54.258;12.574;2023-07-02T08:15:05;13.70;99.90
13598;DHT22;38563;54.258;12.574;2023-07-02T08:17:32;14.10;99.90
13598;DHT22;38563;54.258;12.574;2023-07-02T08:19:59;14.50;99.90
13598;DHT22;38563;54.258;12.574;2023-07-02T08:22:27;15.00;99.90
13598;DHT22;38563;54.258;12.574;2023-07-02T08:24:54;16.00;99.90
13598;DHT22;38563;54.258;12.574;2023-07-02T08:27:21;16.60;99.90
13598;DHT22;38563;54.258;12.574;2023-07-02T08:29:50;16.80;99.90
13598;DHT22;38563;54.258;12.574;2023-07-02T08:32:16;16.90;99.90
13598;DHT22;38563;54.258;12.574;2023-07-02T08:34:43;16.90;99.90
13598;DHT22;38563;54.258;12.574;2023-07-02T08:37:10;17.30;99.90
13598;DHT22;38563;54.258;12.574;2023-07-02T08:39:40;17.50;99.90
13598;DHT22;38563;54.258;12.574;2023-07-02T08:42:07;18.00;99.90
13598;DHT22;38563;54.258;12.574;2023-07-02T08:44:34;18.50;99.90
13598;DHT22;38563;54.258;12.574;2023-07-02T08:47:02;18.60;99.90
13598;DHT22;38563;54.258;12.574;2023-07-02T08:49:29;18.80;99.90
13598;DHT22;38563;54.258;12.574;2023-07-02T08:51:56;18.50;99.90
13598;DHT22;38563;54.258;12.574;2023-07-02T08:54:23;18.30;99.90
13598;DHT22;38563;54.258;12.574;2023-07-02T08:56:49;18.50;99.90
13598;DHT22;38563;54.258;12.574;2023-07-02T08:59:16;18.50;99.90
13598;DHT22;38563;54.258;12.574;2023-07-02T09:01:46;18.60;99.90
13598;DHT22;38563;54.258;12.574;2023-07-02T09:04:19;19.10;99.90
13598;DHT22;38563;54.258;12.574;2023-07-02T09:06:47;19.20;99.90
13598;DHT22;38563;54.258;12.574;2023-07-02T09:09:14;19.10;99.90
13598;DHT22;38563;54.258;12.574;2023-07-02T09:11:48;19.20;99.90
13598;DHT22;38563;54.258;12.574;2023-07-02T09:14:24;19.00;99.90
13598;DHT22;38563;54.258;12.574;2023-07-02T09:17:02;19.50;99.90
13598;DHT22;38563;54.258;12.574;2023-07-02T09:19:31;19.10;99.90
13598;DHT22;38563;54.258;12.574;2023-07-02T09:21:58;18.20;99.90
13598;DHT22;38563;54.258;12.574;2023-07-02T09:24:26;17.30;99.90
13598;DHT22;38563;54.258;12.574;2023-07-02T09:26:54;16.20;99.90
13598;DHT22;38563;54.258;12.574;2023-07-02T09:29:23;15.50;99.90
13598;DHT22;38563;54.258;12.574;2023-07-02T09:31:50;14.90;99.90
13598;DHT22;38563;54.258;12.574;2023-07-02T09:34:17;14.50;99.90
13598;DHT22;38563;54.258;12.574;2023-07-02T09:36:46;14.30;99.90
13598;DHT22;38563;54.258;12.574;2023-07-02T09:39:14;14.10;99.90
13598;DHT22;38563;54.258;12.574;2023-07-02T09:41:41;13.90;99.90
13598;DHT22;38563;54.258;12.574;2023-07-02T09:44:09;13.60;99.90
13598;DHT22;38563;54.258;12.574;2023-07-02T09:46:37;13.50;99.90
13598;DHT22;38563;54.258;12.574;2023-07-02T09:49:12;13.40;99.90
13598;DHT22;38563;54.258;12.574;2023-07-02T09:51:40;13.30;99.90
13598;DHT22;38563;54.258;12.574;2023-07-02T09:54:10;13.20;99.90
13598;DHT22;38563;54.258;12.574;2023-07-02T09:56:39;13.20;99.90
13598;DHT22;38563;54.258;12.574;2023-07-02T09:59:06;13.30;99.90
13598;DHT22;38563;54.258;12.574;2023-07-02T10:01:33;13.50;99.90
13598;DHT22;38563;54.258;12.574;2023-07-02T10:04:11;13.70;99.90
13598;DHT22;38563;54.258;12.574;2023-07-02T10:06:48;14.00;99.90
13598;DHT22;38563;54.258;12.574;2023-07-02T10:09:17;14.40;99.90
13598;DHT22;38563;54.258;12.574;2023-07-02T10:11:44;14.90;99.90
13598;DHT22;38563;54.258;12.574;2023-07-02T10:14:11;15.40;99.90
13598;DHT22;38563;54.258;12.574;2023-07-02T10:16:49;15.90;99.90
13598;DHT22;38563;54.258;12.574;2023-07-02T10:19:16;16.20;99.90
13598;DHT22;38563;54.258;12.574;2023-07-02T10:21:43;16.50;99.90
13598;DHT22;38563;54.258;12.574;2023-07-02T10:24:12;17.10;99.90
13598;DHT22;38563;54.258;12.574;2023-07-02T10:26:51;17.40;99.90
13598;DHT22;38563;54.258;12.574;2023-07-02T10:29:19;17.70;99.90
13598;DHT22;38563;54.258;12.574;2023-07-02T10:31:48;18.10;99.90
13598;DHT22;38563;54.258;12.574;2023-07-02T10:34:15;18.40;99.90
13598;DHT22;38563;54.258;12.574;2023-07-02T10:36:42;17.70;99.90
13598;DHT22;38563;54.258;12.574;2023-07-02T10:39:09;16.50;99.90
13598;DHT22;38563;54.258;12.574;2023-07-02T10:41:35;15.50;99.90
13598;DHT22;38563;54.258;12.574;2023-07-02T10:44:08;15.10;99.90
13598;DHT22;38563;54.258;12.574;2023-07-02T10:46:42;14.90;99.90
13598;DHT22;38563;54.258;12.574;2023-07-02T10:49:09;14.80;99.90
13598;DHT22;38563;54.258;12.574;2023-07-02T10:51:37;14.90;99.90
13598;DHT22;38563;54.258;12.574;2023-07-02T10:54:04;15.10;99.90
13598;DHT22;38563;54.258;12.574;2023-07-02T10:56:31;15.40;99.90
13598;DHT22;38563;54.258;12.574;2023-07-02T10:58:58;15.60;99.90
13598;DHT22;38563;54.258;12.574;2023-07-02T11:01:27;15.90;99.90
13598;DHT22;38563;54.258;12.574;2023-07-02T11:04:02;16.00;99.90
13598;DHT22;38563;54.258;12.574;2023-07-02T11:06:30;16.20;99.90
13598;DHT22;38563;54.258;12.574;2023-07-02T11:08:59;16.60;99.90
13598;DHT22;38563;54.258;12.574;2023-07-02T11:11:26;17.10;99.90
13598;DHT22;38563;54.258;12.574;2023-07-02T11:13:53;17.50;99.90
13598;DHT22;38563;54.258;12.574;2023-07-02T11:16:22;17.50;99.90
13598;DHT22;38563;54.258;12.574;2023-07-02T11:18:53;17.20;99.90
13598;DHT22;38563;54.258;12.574;2023-07-02T11:21:20;17.30;99.90
13598;DHT22;38563;54.258;12.574;2023-07-02T11:23:47;17.50;99.90
13598;DHT22;38563;54.258;12.574;2023-07-02T11:26:13;17.80;99.90
13598;DHT22;38563;54.258;12.574;2023-07-02T11:28:50;18.30;99.90
13598;DHT22;38563;54.258;12.574;2023-07-02T11:31:26;18.80;99.90
13598;DHT22;38563;54.258;12.574;2023-07-02T11:33:54;18.70;99.90
13598;DHT22;38563;54.258;12.574;2023-07-02T11:36:23;18.40;99.90
13598;DHT22;38563;54.258;12.574;2023-07-02T11:38:50;18.30;99.90
13598;DHT22;38563;54.258;12.574;2023-07-02T11:41:18;18.40;99.90
13598;DHT22;38563;54.258;12.574;2023-07-02T11:43:45;18.60;99.90
13598;DHT22;38563;54.258;12.574;2023-07-02T11:46:13;19.00;99.90
13598;DHT22;38563;54.258;12.574;2023-07-02T11:48:40;19.50;99.90
13598;DHT22;38563;54.258;12.574;2023-07-02T11:51:08;19.80;99.90
13598;DHT22;38563;54.258;12.574;2023-07-02T11:53:35;19.70;99.90
13598;DHT22;38563;54.258;12.574;2023-07-02T11:56:01;19.50;99.90
13598;DHT22;38563;54.258;12.574;2023-07-02T11:58:28;19.30;99.90
13598;DHT22;38563;54.258;12.574;2023-07-02T12:00:55;19.20;99.90
13598;DHT22;38563;54.258;12.574;2023-07-02T12:03:22;19.40;99.90
13598;DHT22;38563;54.258;12.574;2023-07-02T12:05:49;19.50;99.90
13598;DHT22;38563;54.258;12.574;2023-07-02T12:08:17;19.70;99.90
13598;DHT22;38563;54.258;12.574;2023-07-02T12:10:44;19.50;99.90
13598;DHT22;38563;54.258;12.574;2023-07-02T12:13:11;19.50;99.90
13598;DHT22;38563;54.258;12.574;2023-07-02T12:15:38;19.20;99.90
13598;DHT22;38563;54.258;12.574;2023-07-02T12:18:05;19.20;99.90
13598;DHT22;38563;54.258;12.574;2023-07-02T12:20:31;19.50;99.90
13598;DHT22;38563;54.258;12.574;2023-07-02T12:22:58;19.80;99.90
13598;DHT22;38563;54.258;12.574;2023-07-02T12:25:26;19.90;99.90
13598;DHT22;38563;54.258;12.574;2023-07-02T12:27:53;19.90;99.90
13598;DHT22;38563;54.258;12.574;2023-07-02T12:30:20;20.10;99.90
13598;DHT22;38563;54.258;12.574;2023-07-02T12:32:47;20.30;99.90
13598;DHT22;38563;54.258;12.574;2023-07-02T12:35:14;20.60;99.90
13598;DHT22;38563;54.258;12.574;2023-07-02T12:37:44;20.40;99.90
13598;DHT22;38563;54.258;12.574;2023-07-02T12:40:11;19.90;99.90
13598;DHT22;38563;54.258;12.574;2023-07-02T12:42:41;19.30;99.90
13598;DHT22;38563;54.258;12.574;2023-07-02T12:45:08;18.90;99.90
13598;DHT22;38563;54.258;12.574;2023-07-02T12:47:36;18.30;99.90
13598;DHT22;38563;54.258;12.574;2023-07-02T12:50:03;17.60;99.90
13598;DHT22;38563;54.258;12.574;2023-07-02T12:52:30;17.30;99.90
13598;DHT22;38563;54.258;12.574;2023-07-02T12:54:57;17.30;99.90
13598;DHT22;38563;54.258;12.574;2023-07-02T12:57:24;17.50;99.90
13598;DHT22;38563;54.258;12.574;2023-07-02T12:59:53;18.10;99.90
13598;DHT22;38563;54.258;12.574;2023-07-02T13:02:20;18.60;99.90
13598;DHT22;38563;54.258;12.574;2023-07-02T13:04:47;18.90;99.90
13598;DHT22;38563;54.258;12.574;2023-07-02T13:07:14;19.60;99.90
13598;DHT22;38563;54.258;12.574;2023-07-02T13:09:41;20.20;99.90
13598;DHT22;38563;54.258;12.574;2023-07-02T13:12:09;20.20;99.90
13598;DHT22;38563;54.258;12.574;2023-07-02T13:14:36;19.90;99.90
13598;DHT22;38563;54.258;12.574;2023-07-02T13:17:05;20.10;99.90
13598;DHT22;38563;54.258;12.574;2023-07-02T13:19:32;19.50;99.90
13598;DHT22;38563;54.258;12.574;2023-07-02T13:22:00;19.20;99.90
13598;DHT22;38563;54.258;12.574;2023-07-02T13:24:31;19.00;99.90
13598;DHT22;38563;54.258;12.574;2023-07-02T13:26:58;19.00;99.90
13598;DHT22;38563;54.258;12.574;2023-07-02T13:29:25;19.10;99.90
13598;DHT22;38563;54.258;12.574;2023-07-02T13:31:52;19.40;99.90
13598;DHT22;38563;54.258;12.574;2023-07-02T13:34:20;20.00;99.90
13598;DHT22;38563;54.258;12.574;2023-07-02T13:36:47;20.50;99.90
13598;DHT22;38563;54.258;12.574;2023-07-02T13:39:13;20.90;99.90
13598;DHT22;38563;54.258;12.574;2023-07-02T13:41:40;20.90;99.90
13598;DHT22;38563;54.258;12.574;2023-07-02T13:44:07;20.80;99.90
13598;DHT22;38563;54.258;12.574;2023-07-02T13:46:34;21.00;99.90
13598;DHT22;38563;54.258;12.574;2023-07-02T13:49:01;21.00;99.90
13598;DHT22;38563;54.258;12.574;2023-07-02T13:51:29;21.20;99.90
13598;DHT22;38563;54.258;12.574;2023-07-02T13:53:55;21.10;99.90
13598;DHT22;38563;54.258;12.574;2023-07-02T13:56:22;21.00;99.90
13598;DHT22;38563;54.258;12.574;2023-07-02T13:59:01;21.10;99.90
13598;DHT22;38563;54.258;12.574;2023-07-02T14:01:28;21.00;99.90
13598;DHT22;38563;54.258;12.574;2023-07-02T14:03:55;21.10;99.90
13598;DHT22;38563;54.258;12.574;2023-07-02T14:06:22;21.30;99.90
13598;DHT22;38563;54.258;12.574;2023-07-02T14:08:49;21.50;99.90
13598;DHT22;38563;54.258;12.574;2023-07-02T14:11:16;21.40;99.90
13598;DHT22;38563;54.258;12.574;2023-07-02T14:13:43;21.50;99.90
13598;DHT22;38563;54.258;12.574;2023-07-02T14:16:11;21.80;99.90
13598;DHT22;38563;54.258;12.574;2023-07-02T14:18:37;21.70;99.90
13598;DHT22;38563;54.258;12.574;2023-07-02T14:21:04;21.70;99.90
13598;DHT22;38563;54.258;12.574;2023-07-02T14:23:31;21.80;99.90
13598;DHT22;38563;54.258;12.574;2023-07-02T14:25:58;22.00;99.90
13598;DHT22;38563;54.258;12.574;2023-07-02T14:28:25;21.80;99.90
13598;DHT22;38563;54.258;12.574;2023-07-02T14:30:58;21.70;99.90
13598;DHT22;38563;54.258;12.574;2023-07-02T14:33:28;22.10;99.90
13598;DHT22;38563;54.258;12.574;2023-07-02T14:35:55;22.00;99.90
13598;DHT22;38563;54.258;12.574;2023-07-02T14:38:22;21.90;99.90
13598;DHT22;38563;54.258;12.574;2023-07-02T14:40:50;21.90;99.90
13598;DHT22;38563;54.258;12.574;2023-07-02T14:43:17;22.00;99.90
13598;DHT22;38563;54.258;12.574;2023-07-02T14:45:47;21.90;99.90
13598;DHT22;38563;54.258;12.574;2023-07-02T14:48:14;21.80;99.90
13598;DHT22;38563;54.258;12.574;2023-07-02T14:50:48;21.70;99.90
13598;DHT22;38563;54.258;12.574;2023-07-02T14:53:16;21.90;99.90
13598;DHT22;38563;54.258;12.574;2023-07-02T14:55:43;22.10;99.90
13598;DHT22;38563;54.258;12.574;2023-07-02T14:58:10;22.30;99.90
13598;DHT22;38563;54.258;12.574;2023-07-02T15:00:43;22.30;99.90
13598;DHT22;38563;54.258;12.574;2023-07-02T15:03:09;21.80;99.90
13598;DHT22;38563;54.258;12.574;2023-07-02T15:05:36;21.00;99.90
13598;DHT22;38563;54.258;12.574;2023-07-02T15:08:04;20.60;99.90
13598;DHT22;38563;54.258;12.574;2023-07-02T15:10:31;20.40;99.90
13598;DHT22;38563;54.258;12.574;2023-07-02T15:12:58;20.50;99.90
13598;DHT22;38563;54.258;12.574;2023-07-02T15:15:25;20.90;99.90
13598;DHT22;38563;54.258;12.574;2023-07-02T15:17:51;21.50;99.90
13598;DHT22;38563;54.258;12.574;2023-07-02T15:20:18;21.00;99.90
13598;DHT22;38563;54.258;12.574;2023-07-02T15:22:45;21.10;99.90
13598;DHT22;38563;54.258;12.574;2023-07-02T15:25:13;20.80;99.90
13598;DHT22;38563;54.258;12.574;2023-07-02T15:27:40;20.10;99.90
13598;DHT22;38563;54.258;12.574;2023-07-02T15:30:08;19.70;99.90
13598;DHT22;38563;54.258;12.574;2023-07-02T15:32:34;19.50;99.90
13598;DHT22;38563;54.258;12.574;2023-07-02T15:35:01;19.30;99.90
13598;DHT22;38563;54.258;12.574;2023-07-02T15:37:28;19.30;99.90
13598;DHT22;38563;54.258;12.574;2023-07-02T15:39:55;19.80;99.90
13598;DHT22;38563;54.258;12.574;2023-07-02T15:42:23;20.10;99.90
13598;DHT22;38563;54.258;12.574;2023-07-02T15:44:55;19.80;99.90
13598;DHT22;38563;54.258;12.574;2023-07-02T15:47:22;19.70;99.90
13598;DHT22;38563;54.258;12.574;2023-07-02T15:49:50;20.50;99.90
13598;DHT22;38563;54.258;12.574;2023-07-02T15:52:17;20.90;99.90
13598;DHT22;38563;54.258;12.574;2023-07-02T15:54:44;20.40;99.90
13598;DHT22;38563;54.258;12.574;2023-07-02T15:57:11;20.10;99.90
13598;DHT22;38563;54.258;12.574;2023-07-02T15:59:39;19.60;99.90
13598;DHT22;38563;54.258;12.574;2023-07-02T16:02:06;19.30;99.90
13598;DHT22;38563;54.258;12.574;2023-07-02T16:04:34;19.00;99.90
13598;DHT22;38563;54.258;12.574;2023-07-02T16:07:01;18.90;99.90
13598;DHT22;38563;54.258;12.574;2023-07-02T16:09:27;18.70;99.90
13598;DHT22;38563;54.258;12.574;2023-07-02T16:11:54;18.10;99.90
13598;DHT22;38563;54.258;12.574;2023-07-02T16:14:21;17.60;99.90
13598;DHT22;38563;54.258;12.574;2023-07-02T16:16:50;17.40;99.90
13598;DHT22;38563;54.258;12.574;2023-07-02T16:19:21;17.40;99.90
13598;DHT22;38563;54.258;12.574;2023-07-02T16:21:49;17.40;99.90
13598;DHT22;38563;54.258;12.574;2023-07-02T16:24:18;17.40;99.90
13598;DHT22;38563;54.258;12.574;2023-07-02T16:26:46;17.40;99.90
13598;DHT22;38563;54.258;12.574;2023-07-02T16:29:13;17.50;99.90
13598;DHT22;38563;54.258;12.574;2023-07-02T16:31:43;17.80;99.90
13598;DHT22;38563;54.258;12.574;2023-07-02T16:34:11;17.90;99.90
13598;DHT22;38563;54.258;12.574;2023-07-02T16:36:41;18.10;99.90
13598;DHT22;38563;54.258;12.574;2023-07-02T16:39:08;18.10;99.90
13598;DHT22;38563;54.258;12.574;2023-07-02T16:41:35;18.20;99.90
13598;DHT22;38563;54.258;12.574;2023-07-02T16:44:12;18.20;99.90
13598;DHT22;38563;54.258;12.574;2023-07-02T16:46:39;18.30;99.90
13598;DHT22;38563;54.258;12.574;2023-07-02T16:49:07;18.40;99.90
13598;DHT22;38563;54.258;12.574;2023-07-02T16:51:35;18.70;99.90
13598;DHT22;38563;54.258;12.574;2023-07-02T16:54:06;19.00;99.90
13598;DHT22;38563;54.258;12.574;2023-07-02T16:56:34;19.30;99.90
13598;DHT22;38563;54.258;12.574;2023-07-02T16:59:02;19.40;99.90
13598;DHT22;38563;54.258;12.574;2023-07-02T17:01:29;19.30;99.90
13598;DHT22;38563;54.258;12.574;2023-07-02T17:03:56;19.10;99.90
13598;DHT22;38563;54.258;12.574;2023-07-02T17:06:23;19.10;99.90
13598;DHT22;38563;54.258;12.574;2023-07-02T17:09:15;19.10;99.90
13598;DHT22;38563;54.258;12.574;2023-07-02T17:11:43;19.10;99.90
13598;DHT22;38563;54.258;12.574;2023-07-02T17:14:10;19.10;99.90
13598;DHT22;38563;54.258;12.574;2023-07-02T17:16:37;19.10;99.90
13598;DHT22;38563;54.258;12.574;2023-07-02T17:19:04;19.10;99.90
13598;DHT22;38563;54.258;12.574;2023-07-02T17:21:30;19.10;99.90
13598;DHT22;38563;54.258;12.574;2023-07-02T17:23:57;19.00;99.90
13598;DHT22;38563;54.258;12.574;2023-07-02T17:26:24;18.80;99.90
13598;DHT22;38563;54.258;12.574;2023-07-02T17:28:52;18.70;99.90
13598;DHT22;38563;54.258;12.574;2023-07-02T17:31:18;18.80;99.90
13598;DHT22;38563;54.258;12.574;2023-07-02T17:33:45;19.00;99.90
13598;DHT22;38563;54.258;12.574;2023-07-02T17:36:15;19.00;99.90
13598;DHT22;38563;54.258;12.574;2023-07-02T17:38:43;19.00;99.90
13598;DHT22;38563;54.258;12.574;2023-07-02T17:41:10;19.00;99.90
13598;DHT22;38563;54.258;12.574;2023-07-02T17:43:37;18.80;99.90
13598;DHT22;38563;54.258;12.574;2023-07-02T17:46:05;18.90;99.90
13598;DHT22;38563;54.258;12.574;2023-07-02T17:48:32;19.00;99.90
13598;DHT22;38563;54.258;12.574;2023-07-02T17:50:59;19.00;99.90
13598;DHT22;38563;54.258;12.574;2023-07-02T17:53:26;19.00;99.90
13598;DHT22;38563;54.258;12.574;2023-07-02T17:55:53;19.10;99.90
13598;DHT22;38563;54.258;12.574;2023-07-02T17:58:20;19.20;99.90
13598;DHT22;38563;54.258;12.574;2023-07-02T18:00:48;19.10;99.90
13598;DHT22;38563;54.258;12.574;2023-07-02T18:03:16;19.20;99.90
13598;DHT22;38563;54.258;12.574;2023-07-02T18:05:43;19.10;99.90
13598;DHT22;38563;54.258;12.574;2023-07-02T18:08:10;19.20;99.90
13598;DHT22;38563;54.258;12.574;2023-07-02T18:10:36;19.20;99.90
13598;DHT22;38563;54.258;12.574;2023-07-02T18:13:05;19.30;99.90
13598;DHT22;38563;54.258;12.574;2023-07-02T18:15:32;19.50;99.90
13598;DHT22;38563;54.258;12.574;2023-07-02T18:17:58;19.50;99.90
13598;DHT22;38563;54.258;12.574;2023-07-02T18:20:26;19.50;99.90
13598;DHT22;38563;54.258;12.574;2023-07-02T18:22:54;19.40;99.90
13598;DHT22;38563;54.258;12.574;2023-07-02T18:25:21;19.30;99.90
13598;DHT22;38563;54.258;12.574;2023-07-02T18:28:01;19.30;99.90
13598;DHT22;38563;54.258;12.574;2023-07-02T18:30:29;19.20;99.90
13598;DHT22;38563;54.258;12.574;2023-07-02T18:32:55;19.00;99.90
13598;DHT22;38563;54.258;12.574;2023-07-02T18:35:22;19.00;99.90
13598;DHT22;38563;54.258;12.574;2023-07-02T18:37:50;19.00;99.90
13598;DHT22;38563;54.258;12.574;2023-07-02T18:40:17;19.00;99.90
13598;DHT22;38563;54.258;12.574;2023-07-02T18:42:47;18.80;99.90
13598;DHT22;38563;54.258;12.574;2023-07-02T18:45:14;18.70;99.90
13598;DHT22;38563;54.258;12.574;2023-07-02T18:47:42;18.50;99.90
13598;DHT22;38563;54.258;12.574;2023-07-02T18:50:10;18.40;99.90
13598;DHT22;38563;54.258;12.574;2023-07-02T18:52:39;18.40;99.90
13598;DHT22;38563;54.258;12.574;2023-07-02T18:55:09;18.20;99.90
13598;DHT22;38563;54.258;12.574;2023-07-02T18:57:36;18.00;99.90
13598;DHT22;38563;54.258;12.574;2023-07-02T19:00:04;17.70;99.90
13598;DHT22;38563;54.258;12.574;2023-07-02T19:02:33;17.50;99.90
13598;DHT22;38563;54.258;12.574;2023-07-02T19:05:00;17.40;99.90
13598;DHT22;38563;54.258;12.574;2023-07-02T19:07:27;17.30;99.90
13598;DHT22;38563;54.258;12.574;2023-07-02T19:09:55;17.30;99.90
13598;DHT22;38563;54.258;12.574;2023-07-02T19:12:24;17.20;99.90
13598;DHT22;38563;54.258;12.574;2023-07-02T19:14:51;17.20;99.90
13598;DHT22;38563;54.258;12.574;2023-07-02T19:17:19;17.10;99.90
13598;DHT22;38563;54.258;12.574;2023-07-02T19:19:46;17.00;99.90
13598;DHT22;38563;54.258;12.574;2023-07-02T19:22:15;16.90;99.90
13598;DHT22;38563;54.258;12.574;2023-07-02T19:24:42;16.80;99.90
13598;DHT22;38563;54.258;12.574;2023-07-02T19:27:11;16.80;99.90
13598;DHT22;38563;54.258;12.574;2023-07-02T19:29:41;16.70;99.90
13598;DHT22;38563;54.258;12.574;2023-07-02T19:32:08;16.70;99.90
13598;DHT22;38563;54.258;12.574;2023-07-02T19:34:35;16.60;99.90
13598;DHT22;38563;54.258;12.574;2023-07-02T19:37:02;16.50;99.90
13598;DHT22;38563;54.258;12.574;2023-07-02T19:39:30;16.50;99.90
13598;DHT22;38563;54.258;12.574;2023-07-02T19:41:57;16.40;99.90
13598;DHT22;38563;54.258;12.574;2023-07-02T19:44:25;16.40;99.90
13598;DHT22;38563;54.258;12.574;2023-07-02T19:46:53;16.40;99.90
13598;DHT22;38563;54.258;12.574;2023-07-02T19:49:20;16.30;99.90
13598;DHT22;38563;54.258;12.574;2023-07-02T19:51:46;16.20;99.90
13598;DHT22;38563;54.258;12.574;2023-07-02T19:54:16;16.20;99.90
13598;DHT22;38563;54.258;12.574;2023-07-02T19:56:43;16.20;99.90
13598;DHT22;38563;54.258;12.574;2023-07-02T19:59:10;16.20;99.90
13598;DHT22;38563;54.258;12.574;2023-07-02T20:01:37;16.10;99.90
13598;DHT22;38563;54.258;12.574;2023-07-02T20:04:06;16.00;99.90
13598;DHT22;38563;54.258;12.574;2023-07-02T20:06:39;15.90;99.90
13598;DHT22;38563;54.258;12.574;2023-07-02T20:09:07;15.80;99.90
13598;DHT22;38563;54.258;12.574;2023-07-02T20:11:34;15.70;99.90
13598;DHT22;38563;54.258;12.574;2023-07-02T20:14:00;15.60;99.90
13598;DHT22;38563;54.258;12.574;2023-07-02T20:16:27;15.50;99.90
13598;DHT22;38563;54.258;12.574;2023-07-02T20:18:54;15.50;99.90
13598;DHT22;38563;54.258;12.574;2023-07-02T20:21:22;15.50;99.90
13598;DHT22;38563;54.258;12.574;2023-07-02T20:23:49;15.40;99.90
13598;DHT22;38563;54.258;12.574;2023-07-02T20:26:16;15.30;99.90
13598;DHT22;38563;54.258;12.574;2023-07-02T20:28:42;15.30;99.90
13598;DHT22;38563;54.258;12.574;2023-07-02T20:31:09;15.20;99.90
13598;DHT22;38563;54.258;12.574;2023-07-02T20:33:36;15.20;99.90
13598;DHT22;38563;54.258;12.574;2023-07-02T20:36:03;15.20;99.90
13598;DHT22;38563;54.258;12.574;2023-07-02T20:38:33;15.20;99.90
13598;DHT22;38563;54.258;12.574;2023-07-02T20:41:00;15.30;99.90
13598;DHT22;38563;54.258;12.574;2023-07-02T20:43:29;15.30;99.90
13598;DHT22;38563;54.258;12.574;2023-07-02T20:45:58;15.30;99.90
13598;DHT22;38563;54.258;12.574;2023-07-02T20:48:27;15.20;99.90
13598;DHT22;38563;54.258;12.574;2023-07-02T20:50:53;15.20;99.90
13598;DHT22;38563;54.258;12.574;2023-07-02T20:53:21;15.20;99.90
13598;DHT22;38563;54.258;12.574;2023-07-02T20:55:57;15.20;99.90
13598;DHT22;38563;54.258;12.574;2023-07-02T20:58:23;15.10;99.90
13598;DHT22;38563;54.258;12.574;2023-07-02T21:00:59;15.10;99.90
13598;DHT22;38563;54.258;12.574;2023-07-02T21:03:27;15.10;99.90
13598;DHT22;38563;54.258;12.574;2023-07-02T21:05:53;15.10;99.90
13598;DHT22;38563;54.258;12.574;2023-07-02T21:08:21;15.10;99.90
13598;DHT22;38563;54.258;12.574;2023-07-02T21:10:48;15.10;99.90
13598;DHT22;38563;54.258;12.574;2023-07-02T21:13:16;15.10;99.90
13598;DHT22;38563;54.258;12.574;2023-07-02T21:15:43;15.10;99.90
13598;DHT22;38563;54.258;12.574;2023-07-02T21:18:18;15.10;99.90
13598;DHT22;38563;54.258;12.574;2023-07-02T21:20:45;15.00;99.90
13598;DHT22;38563;54.258;12.574;2023-07-02T21:23:11;15.00;99.90
13598;DHT22;38563;54.258;12.574;2023-07-02T21:25:38;15.00;99.90
13598;DHT22;38563;54.258;12.574;2023-07-02T21:28:05;15.00;99.90
13598;DHT22;38563;54.258;12.574;2023-07-02T21:30:33;14.90;99.90
13598;DHT22;38563;54.258;12.574;2023-07-02T21:32:59;14.90;99.90
13598;DHT22;38563;54.258;12.574;2023-07-02T21:35:27;14.80;99.90
13598;DHT22;38563;54.258;12.574;2023-07-02T21:37:54;14.70;99.90
13598;DHT22;38563;54.258;12.574;2023-07-02T21:40:21;14.70;99.90
13598;DHT22;38563;54.258;12.574;2023-07-02T21:42:48;14.70;99.90
13598;DHT22;38563;54.258;12.574;2023-07-02T21:45:15;14.70;99.90
13598;DHT22;38563;54.258;12.574;2023-07-02T21:47:43;14.60;99.90
13598;DHT22;38563;54.258;12.574;2023-07-02T21:50:09;14.50;99.90
13598;DHT22;38563;54.258;12.574;2023-07-02T21:52:36;14.50;99.90
13598;DHT22;38563;54.258;12.574;2023-07-02T21:55:03;14.40;99.90
13598;DHT22;38563;54.258;12.574;2023-07-02T21:57:30;14.30;99.90
13598;DHT22;38563;54.258;12.574;2023-07-02T21:59:57;14.30;99.90
13598;DHT22;38563;54.258;12.574;2023-07-02T22:02:23;14.30;99.90
13598;DHT22;38563;54.258;12.574;2023-07-02T22:04:52;14.20;99.90